Time;durP1;ratioP1;P1;durP2;ratioP2;P2;SDS_P1;SDS_P2;PMS_P1;PMS_P2;Temp;Humidity;BMP_temperature;BMP_pressure;BME280_temperature;BME280_humidity;BME280_pressure;Samples;Min_cycle;Max_cycle;Signal;HPM_P1;HPM_P2
2022/09/28 00:01:09;;;;;;;0.53;0.53;;;;;;;18.00;60.23;94108.69;5040203;28;20452;-64
2022/09/28 00:03:36;;;;;;;0.17;0.17;;;;;;;17.56;61.51;94096.72;5051112;28;20513;-62
2022/09/28 00:06:06;;;;;;;0.20;0.20;;;;;;;18.22;59.72;94097.78;5051389;28;20466;-63
2022/09/28 00:08:35;;;;;;;0.30;0.30;;;;;;;17.59;61.22;94105.91;5036868;28;20444;-62
2022/09/28 00:11:03;;;;;;;0.33;0.33;;;;;;;17.81;60.88;94098.47;5051258;28;20462;-61
2022/09/28 00:13:31;;;;;;;5.63;0.87;;;;;;;18.19;59.56;94082.53;5051412;28;20550;-61
2022/09/28 00:16:03;;;;;;;0.17;0.17;;;;;;;18.38;58.64;94090.03;5051023;28;20436;-64
2022/09/28 00:18:31;;;;;;;0.30;0.30;;;;;;;18.40;58.91;94093.94;5051062;28;20470;-63
2022/09/28 00:21:23;;;;;;;0.10;0.10;;;;;;;18.33;59.31;94087.56;5049961;28;20625;-64
2022/09/28 00:26:41;;;;;;;0.20;0.20;;;;;;;18.69;57.61;94085.94;5049839;28;20546;-65
2022/09/28 00:29:26;;;;;;;0.67;0.67;;;;;;;17.65;60.38;94094.03;5036469;28;20444;-64
2022/09/28 00:31:58;;;;;;;0.73;0.73;;;;;;;18.32;59.09;94081.50;5040218;28;20439;-63
2022/09/28 00:34:26;;;;;;;0.33;0.33;;;;;;;18.74;57.51;94079.66;5043170;28;20487;-65
2022/09/28 00:36:53;;;;;;;0.40;0.40;;;;;;;18.61;57.58;94081.47;5029215;28;20829;-63
2022/09/28 00:39:20;;;;;;;0.10;0.10;;;;;;;18.62;57.77;94091.00;5046221;28;20450;-62
2022/09/28 00:41:47;;;;;;;0.67;0.50;;;;;;;18.83;56.71;94086.44;5037408;28;20448;-65
2022/09/28 00:44:32;;;;;;;0.93;0.93;;;;;;;19.00;56.65;94080.19;5031359;28;20455;-64
2022/09/28 00:47:24;;;;;;;0.53;0.40;;;;;;;18.98;56.58;94082.38;5030386;28;20906;-64
2022/09/28 00:50:01;;;;;;;0.70;0.70;;;;;;;18.90;56.97;94081.38;5039870;28;21075;-65
2022/09/28 00:52:39;;;;;;;0.30;0.30;;;;;;;19.00;56.41;94075.66;5029666;28;20435;-62
2022/09/28 00:55:10;;;;;;;0.63;0.63;;;;;;;18.81;57.63;94080.66;5044394;28;20862;-65
2022/09/28 00:57:41;;;;;;;0.80;0.80;;;;;;;18.37;58.16;94088.50;5039876;28;20572;-60
2022/09/28 01:00:09;;;;;;;0.63;0.63;;;;;;;18.40;58.21;94093.13;5030059;28;20448;-63
2022/09/28 01:02:37;;;;;;;0.10;0.10;;;;;;;18.67;57.30;94077.50;5040853;28;20962;-65
2022/09/28 01:05:06;;;;;;;0.20;0.20;;;;;;;18.82;56.59;94087.53;5029113;28;20831;-61
2022/09/28 01:07:34;;;;;;;0.83;0.83;;;;;;;18.83;56.12;94086.44;5036391;28;20439;-64
2022/09/28 01:10:02;;;;;;;0.57;0.53;;;;;;;18.88;56.25;94083.59;5050149;28;20439;-63
2022/09/28 01:12:29;;;;;;;0.47;0.33;;;;;;;18.86;56.13;94082.34;5048505;28;20507;-63
2022/09/28 01:14:59;;;;;;;0.40;0.40;;;;;;;18.94;55.84;94082.28;5037782;28;20487;-62
2022/09/28 01:18:07;;;;;;;2.47;1.30;;;;;;;18.84;56.21;94089.88;5028119;28;20450;-62
2022/09/28 01:20:52;;;;;;;0.73;0.73;;;;;;;19.07;55.53;94083.88;5028218;28;20444;-63
2022/09/28 01:23:49;;;;;;;0.30;0.30;;;;;;;18.88;56.00;94072.97;5028503;28;20448;-62
2022/09/28 01:26:33;;;;;;;0.67;0.67;;;;;;;18.65;57.04;94085.03;5028444;28;20482;-62
2022/09/28 01:29:10;;;;;;;2.63;2.20;;;;;;;18.55;57.54;94090.72;5028436;28;20658;-61
2022/09/28 01:31:40;;;;;;;1.13;0.93;;;;;;;18.90;56.41;94088.56;5028392;28;20923;-62
2022/09/28 01:34:17;;;;;;;0.10;0.10;;;;;;;18.76;56.44;94093.34;5042309;28;20855;-62
2022/09/28 01:36:52;;;;;;;1.40;1.30;;;;;;;18.43;56.91;94105.81;5038149;28;20996;-63
2022/09/28 01:39:27;;;;;;;1.30;1.20;;;;;;;17.80;59.73;94114.69;5047160;28;20496;-62
2022/09/28 01:41:59;;;;;;;0.60;0.60;;;;;;;17.98;60.12;94113.53;5029141;28;20431;-63
2022/09/28 01:44:31;;;;;;;0.70;0.70;;;;;;;17.72;60.84;94107.56;5040337;28;20471;-62
2022/09/28 01:47:03;;;;;;;1.13;1.13;;;;;;;18.01;59.96;94102.28;5041900;28;20462;-63
2022/09/28 01:49:38;;;;;;;0.53;0.40;;;;;;;18.48;58.89;94101.09;5035443;28;20451;-64
2022/09/28 01:52:18;;;;;;;0.57;0.53;;;;;;;18.19;59.03;94117.00;5029189;28;20443;-63
2022/09/28 01:54:55;;;;;;;0.43;0.43;;;;;;;18.09;59.64;94104.09;5042547;28;20479;-63
2022/09/28 01:57:44;;;;;;;0.23;0.23;;;;;;;18.26;59.33;94096.06;5047754;28;20499;-62
2022/09/28 02:00:14;;;;;;;0.73;0.73;;;;;;;18.41;58.55;94105.31;5028126;28;20436;-61
2022/09/28 02:02:55;;;;;;;0.30;0.30;;;;;;;18.33;59.17;94106.94;5028545;28;20804;-63
2022/09/28 02:05:35;;;;;;;0.73;0.73;;;;;;;18.45;58.75;94099.06;5042259;28;20501;-62
2022/09/28 02:08:10;;;;;;;0.43;0.43;;;;;;;18.40;58.11;94117.81;5028069;28;20531;-62
2022/09/28 02:10:51;;;;;;;2.37;2.17;;;;;;;17.99;59.65;94141.59;5033520;28;20521;-64
2022/09/28 02:13:26;;;;;;;2.43;1.60;;;;;;;18.01;59.78;94129.56;5036372;28;20447;-65
2022/09/28 02:15:59;;;;;;;0.70;0.60;;;;;;;17.74;61.35;94115.97;5031765;28;21012;-62
2022/09/28 02:18:26;;;;;;;0.20;0.20;;;;;;;17.23;61.99;94138.06;5049479;28;20529;-61
2022/09/28 02:21:12;;;;;;;1.10;0.73;;;;;;;17.91;59.95;94107.94;5030099;28;20436;-60
2022/09/28 02:23:48;;;;;;;1.10;0.87;;;;;;;18.03;59.33;94100.06;5042312;28;20454;-61
2022/09/28 02:26:19;;;;;;;0.40;0.40;;;;;;;18.24;58.71;94116.81;5048062;28;20435;-62
2022/09/28 02:28:47;;;;;;;0.40;0.40;;;;;;;17.33;60.94;94118.41;5047752;28;20908;-63
2022/09/28 02:31:14;;;;;;;0.87;0.43;;;;;;;17.43;61.52;94118.84;5034017;28;20814;-62
2022/09/28 02:33:43;;;;;;;1.20;1.13;;;;;;;17.94;59.46;94128.50;5036587;28;20439;-64
2022/09/28 02:36:10;;;;;;;0.77;0.77;;;;;;;17.45;60.76;94127.25;5041761;28;20491;-65
2022/09/28 02:38:38;;;;;;;0.37;0.37;;;;;;;17.57;60.64;94113.41;5028093;28;20447;-62
2022/09/28 02:41:28;;;;;;;0.87;0.77;;;;;;;17.95;59.58;94109.66;5040949;28;20879;-64
2022/09/28 02:44:16;;;;;;;0.37;0.37;;;;;;;17.61;60.20;94135.53;5027716;28;20470;-64
2022/09/28 02:47:01;;;;;;;0.10;0.10;;;;;;;17.95;59.56;94119.47;5027802;28;20942;-63
2022/09/28 02:49:46;;;;;;;1.13;0.77;;;;;;;17.75;59.74;94125.47;5029669;28;20812;-62
2022/09/28 02:52:47;;;;;;;0.43;0.43;;;;;;;17.65;59.72;94125.81;5031629;28;20539;-61
2022/09/28 02:55:59;;;;;;;0.83;0.83;;;;;;;17.82;59.88;94115.16;5046387;28;20946;-61
2022/09/28 02:58:32;;;;;;;0.90;0.90;;;;;;;17.86;59.24;94132.00;5024904;28;20474;-62
2022/09/28 03:01:19;;;;;;;0.77;0.77;;;;;;;18.10;58.49;94121.59;5031235;28;20439;-63
2022/09/28 03:03:54;;;;;;;3.63;1.90;;;;;;;18.16;58.15;94120.28;5034319;28;20501;-64
2022/09/28 03:06:33;;;;;;;1.50;1.33;;;;;;;18.02;58.05;94125.03;5051240;28;20584;-62
2022/09/28 03:09:07;;;;;;;0.27;0.27;;;;;;;17.96;58.24;94132.41;5032554;28;20498;-63
2022/09/28 03:11:46;;;;;;;0.20;0.20;;;;;;;18.00;57.81;94119.28;5031455;28;20981;-61
2022/09/28 03:14:14;;;;;;;0.13;0.13;;;;;;;17.99;58.20;94136.28;5030777;28;20439;-63
2022/09/28 03:16:48;;;;;;;0.30;0.30;;;;;;;17.92;58.65;94141.28;5040303;28;20805;-63
2022/09/28 03:19:20;;;;;;;0.20;0.20;;;;;;;17.95;58.21;94140.69;5050761;28;20432;-62
2022/09/28 03:21:48;;;;;;;0.73;0.73;;;;;;;18.11;57.40;94144.34;5050936;28;20479;-63
2022/09/28 03:24:15;;;;;;;3.20;1.60;;;;;;;17.66;58.78;94143.28;5049761;28;20467;-62
2022/09/28 03:26:42;;;;;;;0.20;0.20;;;;;;;17.86;58.37;94142.59;5040820;28;20447;-62
2022/09/28 03:29:09;;;;;;;0.50;0.50;;;;;;;18.06;57.52;94152.47;5046333;28;20447;-61
2022/09/28 03:31:37;;;;;;;0.50;0.50;;;;;;;18.10;57.78;94164.75;5042156;28;20444;-61
2022/09/28 03:34:04;;;;;;;0.73;0.73;;;;;;;17.86;58.63;94148.66;5047078;28;20447;-62
2022/09/28 03:36:31;;;;;;;0.43;0.43;;;;;;;18.06;57.85;94152.47;5030595;28;20503;-62
2022/09/28 03:38:58;;;;;;;1.23;1.13;;;;;;;18.02;57.73;94167.47;5030720;28;20452;-64
2022/09/28 03:41:28;;;;;;;0.70;0.70;;;;;;;17.98;57.43;94162.03;5038931;28;20510;-60
2022/09/28 03:43:55;;;;;;;0.40;0.40;;;;;;;17.86;58.05;94161.13;5034677;28;20474;-64
2022/09/28 03:46:25;;;;;;;1.20;1.10;;;;;;;17.39;59.42;94164.84;5040240;28;20443;-63
2022/09/28 03:48:57;;;;;;;0.53;0.53;;;;;;;17.99;58.01;94160.16;5043996;28;20532;-62
2022/09/28 03:51:24;;;;;;;0.53;0.53;;;;;;;17.36;59.21;94160.16;5030333;28;20790;-62
2022/09/28 03:53:52;;;;;;;8.57;1.27;;;;;;;17.66;58.91;94138.00;5030484;28;20514;-61
2022/09/28 03:56:19;;;;;;;0.20;0.20;;;;;;;17.88;58.82;94158.94;5029858;28;20527;-63
2022/09/28 03:58:46;;;;;;;0.37;0.37;;;;;;;17.14;60.32;94164.56;5030326;28;20531;-63
2022/09/28 04:01:17;;;;;;;0.73;0.70;;;;;;;17.04;61.77;94153.50;5028120;28;20469;-60
2022/09/28 04:03:46;;;;;;;0.40;0.40;;;;;;;17.59;60.55;94169.50;5029740;28;20431;-62
2022/09/28 04:06:13;;;;;;;0.50;0.50;;;;;;;17.55;59.50;94158.75;5029971;28;20436;-63
2022/09/28 04:08:42;;;;;;;0.77;0.77;;;;;;;17.27;61.97;94165.47;5033871;28;20439;-62
2022/09/28 04:11:10;;;;;;;0.40;0.40;;;;;;;17.47;60.16;94171.97;5049383;28;20544;-63
2022/09/28 04:13:37;;;;;;;0.40;0.40;;;;;;;17.53;60.44;94152.22;5047867;28;20542;-61
2022/09/28 04:16:06;;;;;;;0.80;0.80;;;;;;;17.70;59.88;94144.22;5037026;28;21025;-61
2022/09/28 04:18:34;;;;;;;0.90;0.90;;;;;;;17.41;60.45;94157.34;5044655;28;20887;-61
2022/09/28 04:21:12;;;;;;;0.60;0.40;;;;;;;17.82;59.85;94152.25;5029718;28;20542;-64
2022/09/28 04:23:43;;;;;;;0.83;0.77;;;;;;;17.54;60.71;94145.81;5028696;28;20539;-63
2022/09/28 04:26:19;;;;;;;0.83;0.83;;;;;;;17.44;60.50;94146.13;5043197;28;20454;-63
2022/09/28 04:31:45;;;;;;;0.73;0.73;;;;;;;17.80;59.81;94165.06;5033699;28;20441;-63
2022/09/28 04:34:17;;;;;;;0.10;0.10;;;;;;;17.98;58.84;94156.72;5044100;28;21119;-63
2022/09/28 04:36:44;;;;;;;1.47;1.33;;;;;;;18.03;59.23;94155.75;5028628;28;20903;-62
2022/09/28 04:39:12;;;;;;;3.37;3.07;;;;;;;18.16;58.82;94154.75;5027634;28;20448;-62
2022/09/28 04:41:42;;;;;;;5.93;4.03;;;;;;;18.20;58.42;94158.31;5032782;28;20870;-60
2022/09/28 04:44:09;;;;;;;2.47;2.00;;;;;;;18.18;57.92;94148.03;5033804;28;20553;-65
2022/09/28 04:46:36;;;;;;;6.90;1.93;;;;;;;17.65;60.31;94139.84;5026595;28;20451;-61
2022/09/28 04:49:23;;;;;;;5.50;1.83;;;;;;;17.86;59.77;94158.50;5029198;28;20426;-64
2022/09/28 04:51:53;;;;;;;0.63;0.63;;;;;;;17.94;58.83;94155.78;5028350;28;20476;-62
2022/09/28 04:54:20;;;;;;;0.53;0.53;;;;;;;18.11;59.03;94149.63;5027752;28;20839;-60
2022/09/28 04:56:47;;;;;;;0.47;0.47;;;;;;;18.47;57.91;94149.94;5027769;28;20572;-62
2022/09/28 04:59:14;;;;;;;1.37;1.27;;;;;;;18.27;58.49;94153.28;5037331;28;20938;-62
2022/09/28 05:01:43;;;;;;;0.67;0.67;;;;;;;18.08;58.74;94153.69;5047788;28;20443;-62
2022/09/28 05:04:42;;;;;;;0.90;0.87;;;;;;;17.98;60.04;94140.03;5038960;28;20949;-63
2022/09/28 05:07:27;;;;;;;1.33;1.23;;;;;;;18.07;61.05;94148.72;5049672;28;20442;-64
2022/09/28 05:09:56;;;;;;;2.10;1.77;;;;;;;18.18;60.17;94155.22;5047888;28;20435;-64
2022/09/28 05:12:23;;;;;;;0.33;0.33;;;;;;;18.41;58.91;94148.56;5030995;28;20501;-62
2022/09/28 05:14:50;;;;;;;0.53;0.53;;;;;;;18.02;60.93;94146.25;5028123;28;20439;-57
2022/09/28 05:17:17;;;;;;;0.23;0.23;;;;;;;17.85;61.32;94156.91;5025808;28;20447;-59
2022/09/28 05:20:07;;;;;;;1.33;1.23;;;;;;;17.95;61.08;94146.75;5045660;28;20530;-61
2022/09/28 05:22:34;;;;;;;2.07;1.07;;;;;;;17.85;61.69;94162.22;5033723;28;20535;-62
2022/09/28 05:25:03;;;;;;;6.90;3.00;;;;;;;18.12;61.27;94172.38;5026010;28;20541;-63
2022/09/28 05:27:40;;;;;;;0.50;0.50;;;;;;;18.41;60.11;94175.06;5026599;28;20502;-60
2022/09/28 05:30:22;;;;;;;1.97;1.00;;;;;;;18.81;58.55;94172.81;5030114;28;20439;-61
2022/09/28 05:33:07;;;;;;;1.83;1.20;;;;;;;18.55;59.11;94178.28;5030059;28;20451;-60
2022/09/28 05:35:44;;;;;;;1.83;1.73;;;;;;;18.72;58.61;94172.09;5039115;28;20521;-66
2022/09/28 05:38:15;;;;;;;1.50;1.20;;;;;;;18.82;58.08;94177.00;5043892;28;20538;-63
2022/09/28 05:40:42;;;;;;;3.40;1.43;;;;;;;18.52;59.10;94170.94;5043861;28;20440;-63
2022/09/28 05:43:09;;;;;;;1.00;0.90;;;;;;;18.68;58.61;94179.94;5027725;28;20444;-59
2022/09/28 05:45:36;;;;;;;5.87;4.50;;;;;;;18.00;61.50;94169.66;5027612;28;20447;-63
2022/09/28 05:48:03;;;;;;;2.60;2.33;;;;;;;18.54;59.55;94174.06;5027447;28;20446;-63
2022/09/28 05:50:30;;;;;;;5.47;2.23;;;;;;;18.56;59.70;94177.19;5038770;28;20440;-63
2022/09/28 05:53:06;;;;;;;2.30;2.10;;;;;;;18.53;59.75;94174.38;5027556;28;20514;-60
2022/09/28 05:55:36;;;;;;;0.43;0.40;;;;;;;18.62;59.16;94178.56;5041508;28;20512;-62
2022/09/28 05:58:05;;;;;;;1.73;1.63;;;;;;;19.00;58.32;94165.16;5040807;28;20447;-60
2022/09/28 06:00:34;;;;;;;1.37;1.27;;;;;;;18.27;60.28;94181.69;5042854;28;20535;-60
2022/09/28 06:03:07;;;;;;;0.73;0.63;;;;;;;18.84;58.43;94172.16;5038364;28;20530;-61
2022/09/28 06:05:38;;;;;;;1.13;1.07;;;;;;;18.98;58.23;94168.13;5029419;28;20454;-59
2022/09/28 06:08:09;;;;;;;0.70;0.70;;;;;;;18.77;59.10;94177.97;5028036;28;20455;-65
2022/09/28 06:10:37;;;;;;;1.57;1.47;;;;;;;18.87;59.00;94177.59;5027723;28;20440;-62
2022/09/28 06:13:05;;;;;;;0.57;0.50;;;;;;;18.91;58.82;94183.81;5037281;28;20469;-64
2022/09/28 06:15:34;;;;;;;3.23;0.77;;;;;;;18.70;59.63;94185.66;5046773;28;20931;-63
2022/09/28 06:18:03;;;;;;;0.50;0.50;;;;;;;19.13;58.65;94188.78;5027085;28;20986;-60
2022/09/28 06:20:40;;;;;;;2.10;1.30;;;;;;;19.15;59.33;94197.22;5028938;28;20444;-60
2022/09/28 06:23:12;;;;;;;0.23;0.23;;;;;;;19.52;57.69;94192.84;5040073;28;20442;-60
2022/09/28 06:25:40;;;;;;;0.97;0.97;;;;;;;19.41;58.76;94190.91;5032779;28;20448;-59
2022/09/28 06:28:10;;;;;;;0.60;0.60;;;;;;;19.50;58.77;94195.06;5031431;28;20443;-61
2022/09/28 06:30:40;;;;;;;3.87;2.07;;;;;;;19.10;58.61;94192.06;5030992;28;20542;-63
2022/09/28 06:33:12;;;;;;;2.37;1.33;;;;;;;19.00;59.28;94197.78;5030936;28;21036;-61
2022/09/28 06:35:39;;;;;;;0.60;0.47;;;;;;;18.85;59.43;94208.22;5030698;28;20487;-61
2022/09/28 06:38:07;;;;;;;2.10;1.37;;;;;;;18.28;60.47;94201.81;5031061;28;20467;-58
2022/09/28 06:40:34;;;;;;;1.73;0.80;;;;;;;18.35;60.65;94202.88;5039261;28;20462;-62
2022/09/28 06:43:11;;;;;;;1.50;1.40;;;;;;;18.85;58.90;94190.41;5042287;28;20457;-63
2022/09/28 06:45:56;;;;;;;1.90;1.63;;;;;;;18.74;58.66;94191.88;5046219;28;20506;-58
2022/09/28 06:48:32;;;;;;;1.43;1.20;;;;;;;18.78;58.58;94200.75;5045061;28;20470;-64
2022/09/28 06:51:00;;;;;;;4.50;1.23;;;;;;;19.03;57.94;94202.44;5040557;28;20468;-61
2022/09/28 06:53:36;;;;;;;1.70;1.30;;;;;;;18.76;59.59;94210.13;5045075;28;20470;-63
2022/09/28 06:56:23;;;;;;;3.03;1.30;;;;;;;18.97;59.38;94209.06;5046700;28;20865;-63
2022/09/28 06:58:55;;;;;;;2.10;0.93;;;;;;;18.95;59.20;94205.97;5050457;28;20450;-57
2022/09/28 07:01:23;;;;;;;0.53;0.43;;;;;;;18.54;59.19;94211.22;5039401;28;20499;-62
2022/09/28 07:04:16;;;;;;;0.70;0.70;;;;;;;19.12;57.86;94192.53;5039866;28;20455;-60
2022/09/28 07:06:53;;;;;;;1.40;0.60;;;;;;;19.38;56.30;94192.34;5051066;28;20474;-58
2022/09/28 07:09:40;;;;;;;1.43;0.93;;;;;;;19.32;57.57;94209.59;5039799;28;20797;-58
2022/09/28 07:12:34;;;;;;;0.53;0.50;;;;;;;19.53;57.92;94214.88;5037622;28;20438;-61
2022/09/28 07:15:11;;;;;;;0.83;0.60;;;;;;;19.36;59.53;94220.34;5052288;28;20524;-57
2022/09/28 07:17:37;;;;;;;0.40;0.40;;;;;;;19.61;57.71;94211.34;5030879;28;20830;-61
2022/09/28 07:20:24;;;;;;;0.40;0.40;;;;;;;19.52;59.22;94213.31;5029821;28;20474;-60
2022/09/28 07:22:54;;;;;;;1.10;0.70;;;;;;;20.05;56.95;94210.59;5037611;28;20941;-58
2022/09/28 07:25:24;;;;;;;1.00;1.00;;;;;;;20.35;55.93;94209.28;5050579;28;20454;-63
2022/09/28 07:28:06;;;;;;;0.63;0.63;;;;;;;20.10;56.57;94207.69;5042344;28;20498;-63
2022/09/28 07:31:11;;;;;;;0.50;0.50;;;;;;;20.27;57.55;94207.53;5068862;28;20449;-64
2022/09/28 07:33:59;;;;;;;2.63;1.13;;;;;;;20.71;55.74;94214.59;5061332;28;20457;-61
2022/09/28 07:36:35;;;;;;;0.57;0.37;;;;;;;20.37;57.38;94211.63;5029379;28;20910;-62
2022/09/28 07:39:02;;;;;;;0.93;0.93;;;;;;;20.48;56.26;94210.84;5029714;28;20455;-66
2022/09/28 07:41:32;;;;;;;3.30;0.77;;;;;;;20.79;55.33;94213.72;5037820;28;20475;-66
2022/09/28 07:44:05;;;;;;;1.60;1.50;;;;;;;20.95;56.37;94211.91;5029487;28;20459;-60
2022/09/28 07:46:34;;;;;;;0.50;0.50;;;;;;;20.28;58.75;94214.38;5029661;28;20831;-59
2022/09/28 07:49:15;;;;;;;0.50;0.50;;;;;;;20.03;59.96;94212.78;5043445;28;20462;-61
2022/09/28 07:52:07;;;;;;;0.80;0.80;;;;;;;20.91;57.89;94210.25;5029517;28;20447;-64
2022/09/28 07:54:39;;;;;;;1.30;1.07;;;;;;;21.03;58.00;94202.25;5046271;28;20513;-65
2022/09/28 07:57:23;;;;;;;2.03;0.67;;;;;;;20.74;60.25;94215.81;5032561;28;20483;-66
2022/09/28 08:00:07;;;;;;;0.87;0.80;;;;;;;21.53;58.17;94212.44;5045765;28;20451;-64
2022/09/28 08:02:44;;;;;;;0.20;0.20;;;;;;;21.87;56.04;94214.50;5049535;28;20446;-67
2022/09/28 08:05:16;;;;;;;0.70;0.70;;;;;;;21.68;55.33;94212.44;5047979;28;21153;-62
2022/09/28 08:07:43;;;;;;;0.30;0.30;;;;;;;21.29;56.69;94213.28;5038344;28;20784;-62
2022/09/28 08:10:11;;;;;;;1.90;1.60;;;;;;;21.42;55.97;94219.34;5049234;28;20885;-65
2022/09/28 08:13:15;;;;;;;0.20;0.20;;;;;;;22.00;51.64;94224.00;5067989;28;20442;-60
2022/09/28 08:16:04;;;;;;;0.30;0.30;;;;;;;22.15;52.06;94212.56;5036949;28;20475;-63
2022/09/28 08:18:38;;;;;;;0.57;0.57;;;;;;;21.76;53.44;94200.09;5048901;28;20453;-58
2022/09/28 08:23:51;;;;;;;2.17;1.13;;;;;;;21.44;53.66;94211.78;5048604;28;20516;-62
2022/09/28 08:26:18;;;;;;;0.57;0.57;;;;;;;22.31;52.58;94205.34;5048870;28;20435;-61
2022/09/28 08:28:46;;;;;;;0.40;0.40;;;;;;;22.15;52.75;94209.91;5035999;28;20440;-62
2022/09/28 08:31:32;;;;;;;0.30;0.30;;;;;;;21.84;50.52;94209.88;5030242;28;20307;-67
2022/09/28 08:34:16;;;;;;;0.27;0.27;;;;;;;22.26;51.33;94218.16;5042562;28;20454;-62
2022/09/28 08:37:02;;;;;;;3.17;1.53;;;;;;;22.39;51.62;94223.03;5040824;28;20927;-64
2022/09/28 08:39:49;;;;;;;0.20;0.20;;;;;;;22.38;50.67;94197.50;5035093;28;20454;-65
2022/09/28 08:42:57;;;;;;;0.10;0.10;;;;;;;22.13;51.06;94217.47;5028579;28;20962;-63
2022/09/28 08:45:43;;;;;;;0.27;0.27;;;;;;;22.01;48.70;94209.53;5047912;28;20830;-62
2022/09/28 08:48:47;;;;;;;0.23;0.23;;;;;;;22.62;47.61;94197.31;5035867;28;20615;-63
2022/09/28 08:52:22;;;;;;;0.63;0.63;;;;;;;22.94;48.11;94206.81;5048193;28;20451;-65
2022/09/28 08:55:31;;;;;;;0.40;0.40;;;;;;;22.69;50.14;94200.16;5046672;28;20547;-63
2022/09/28 08:58:16;;;;;;;0.23;0.23;;;;;;;23.29;48.53;94192.63;5039811;28;20431;-64
2022/09/28 09:00:51;;;;;;;0.43;0.43;;;;;;;23.71;47.57;94185.47;5043585;28;20444;-62
2022/09/28 09:03:34;;;;;;;0.83;0.80;;;;;;;23.74;48.62;94177.50;5041969;28;20439;-60
2022/09/28 09:06:48;;;;;;;0.90;0.47;;;;;;;24.24;45.26;94173.81;5039454;28;20458;-63
2022/09/28 09:10:12;;;;;;;0.10;0.10;;;;;;;24.62;45.46;94178.22;5038268;28;20208;-59
2022/09/28 09:12:45;;;;;;;0.23;0.23;;;;;;;24.73;43.18;94190.66;5034375;28;20228;-63
2022/09/28 09:15:26;;;;;;;0.53;0.53;;;;;;;24.47;43.82;94181.84;5035278;28;20205;-64
2022/09/28 09:18:05;;;;;;;0.27;0.27;;;;;;;25.05;42.48;94175.03;5035386;28;20227;-64
2022/09/28 09:21:27;;;;;;;0.10;0.10;;;;;;;24.52;45.02;94184.97;5028950;28;20649;-64
2022/09/28 09:24:02;;;;;;;0.60;0.50;;;;;;;25.47;43.22;94180.19;5029999;28;20223;-64
2022/09/28 09:26:38;;;;;;;1.03;0.60;;;;;;;25.52;43.48;94166.44;5047897;28;20200;-61
2022/09/28 09:29:20;;;;;;;3.83;1.00;;;;;;;25.85;41.70;94166.41;5047781;28;20266;-63
2022/09/28 09:32:13;;;;;;;0.37;0.37;;;;;;;25.66;43.07;94170.06;5047746;28;20196;-61
2022/09/28 09:34:58;;;;;;;0.13;0.13;;;;;;;24.98;42.60;94170.34;5042092;28;20293;-63
2022/09/28 09:38:18;;;;;;;0.30;0.30;;;;;;;26.16;40.40;94173.25;5045415;28;20254;-64
2022/09/28 09:41:37;;;;;;;0.20;0.20;;;;;;;26.20;40.68;94164.09;5066270;28;20763;-64
2022/09/28 09:45:13;;;;;;;0.30;0.30;;;;;;;26.14;40.79;94157.50;5012889;28;20232;-62
2022/09/28 09:48:10;;;;;;;0.93;0.83;;;;;;;25.84;40.80;94162.16;5036766;28;20661;-63
2022/09/28 09:51:18;;;;;;;0.93;0.60;;;;;;;25.69;39.87;94157.81;5041055;28;20196;-65
2022/09/28 09:53:58;;;;;;;0.20;0.20;;;;;;;25.95;40.99;94155.78;5061345;28;20196;-66
2022/09/28 09:56:35;;;;;;;0.50;0.50;;;;;;;26.41;40.11;94150.81;5027424;28;20213;-62
2022/09/28 09:59:28;;;;;;;0.27;0.27;;;;;;;26.07;38.76;94144.03;5034168;28;20200;-66
2022/09/28 10:02:30;;;;;;;0.30;0.30;;;;;;;26.50;37.54;94148.59;5045610;28;20211;-64
2022/09/28 10:05:19;;;;;;;0.20;0.20;;;;;;;26.41;39.15;94148.13;5031728;28;20631;-65
2022/09/28 10:08:10;;;;;;;0.30;0.30;;;;;;;26.66;39.09;94151.00;5043427;28;20292;-64
2022/09/28 10:10:50;;;;;;;0.47;0.47;;;;;;;26.87;38.60;94143.88;5051058;28;20185;-66
2022/09/28 10:13:18;;;;;;;0.20;0.20;;;;;;;26.01;38.74;94146.25;5051736;28;20493;-67
2022/09/28 10:15:46;;;;;;;0.50;0.50;;;;;;;26.87;37.76;94143.88;5037087;28;20201;-63
2022/09/28 10:18:20;;;;;;;0.83;0.70;;;;;;;26.76;37.61;94148.41;5050974;28;20228;-63
2022/09/28 10:21:10;;;;;;;0.67;0.57;;;;;;;26.70;39.02;94144.53;5052475;28;20211;-63
2022/09/28 10:23:53;;;;;;;0.10;0.10;;;;;;;27.14;38.87;94146.28;5051126;28;20205;-66
2022/09/28 10:26:31;;;;;;;0.40;0.40;;;;;;;27.20;36.31;94139.41;5051161;28;20203;-62
2022/09/28 10:29:00;;;;;;;0.93;0.50;;;;;;;26.69;37.58;94132.25;5036578;28;20262;-61
2022/09/28 10:31:39;;;;;;;0.23;0.23;;;;;;;26.98;36.08;94133.94;5051179;28;20213;-64
2022/09/28 10:34:14;;;;;;;0.23;0.23;;;;;;;27.10;35.23;94124.75;5037010;28;20201;-62
2022/09/28 10:36:49;;;;;;;0.10;0.10;;;;;;;26.88;36.88;94123.13;5051071;28;20227;-67
2022/09/28 10:39:29;;;;;;;0.37;0.37;;;;;;;27.47;36.11;94116.47;5050926;28;20294;-65
2022/09/28 10:41:59;;;;;;;0.23;0.23;;;;;;;27.46;35.50;94110.31;5037206;28;20231;-66
2022/09/28 10:44:31;;;;;;;0.20;0.20;;;;;;;27.54;33.82;94111.13;5042768;28;20236;-64
2022/09/28 10:47:08;;;;;;;0.20;0.20;;;;;;;27.38;35.06;94108.00;5031835;28;20686;-64
2022/09/28 10:49:45;;;;;;;0.10;0.10;;;;;;;27.07;35.81;94108.63;5042663;28;20215;-61
2022/09/28 10:52:39;;;;;;;0.30;0.30;;;;;;;27.84;34.78;94098.09;5031059;28;20296;-64
2022/09/28 10:55:20;;;;;;;0.23;0.23;;;;;;;27.79;32.46;94096.56;5032368;28;20220;-62
2022/09/28 10:57:47;;;;;;;0.27;0.27;;;;;;;27.47;33.47;94097.63;5050297;28;20230;-60
2022/09/28 11:00:41;;;;;;;0.30;0.30;;;;;;;27.46;33.01;94098.81;5048430;28;20250;-64
2022/09/28 11:03:27;;;;;;;0.50;0.50;;;;;;;27.63;34.22;94090.75;5050380;28;20905;-63
2022/09/28 11:06:05;;;;;;;1.20;0.77;;;;;;;27.89;33.84;94084.25;5049932;28;20695;-67
2022/09/28 11:08:41;;;;;;;0.50;0.50;;;;;;;28.26;33.99;94082.00;5045025;28;20290;-64
2022/09/28 11:11:14;;;;;;;0.40;0.40;;;;;;;28.66;32.78;94078.88;5049817;28;20200;-62
2022/09/28 11:13:54;;;;;;;0.30;0.30;;;;;;;28.45;31.47;94072.75;5036026;28;20201;-65
2022/09/28 11:16:30;;;;;;;9.60;0.67;;;;;;;28.19;32.53;94065.84;5050138;28;20208;-63
2022/09/28 11:19:24;;;;;;;0.50;0.50;;;;;;;28.91;32.49;94063.38;5035922;28;20232;-61
2022/09/28 11:21:51;;;;;;;0.53;0.53;;;;;;;29.33;31.63;94061.69;5050246;28;20211;-66
2022/09/28 11:24:24;;;;;;;0.43;0.40;;;;;;;28.94;32.13;94059.91;5049955;28;20708;-61
2022/09/28 11:26:58;;;;;;;0.10;0.10;;;;;;;28.89;31.51;94054.16;5049849;28;20718;-62
2022/09/28 11:29:40;;;;;;;0.17;0.17;;;;;;;28.71;30.82;94048.03;5035885;28;20287;-61
2022/09/28 11:32:20;;;;;;;0.30;0.30;;;;;;;28.89;31.04;94051.44;5051871;28;20197;-62
2022/09/28 11:35:20;;;;;;;0.20;0.20;;;;;;;28.90;34.16;94051.06;5050205;28;20207;-66
2022/09/28 11:38:26;;;;;;;0.20;0.20;;;;;;;29.06;31.57;94044.44;5035473;28;20235;-66
2022/09/28 11:41:48;;;;;;;0.20;0.20;;;;;;;28.90;32.36;94040.25;5042464;28;20636;-61
2022/09/28 11:44:24;;;;;;;0.20;0.20;;;;;;;29.24;31.48;94034.38;5032941;28;20220;-60
2022/09/28 11:47:28;;;;;;;0.60;0.60;;;;;;;29.74;31.57;94046.44;5031350;28;20659;-64
2022/09/28 11:50:18;;;;;;;0.77;0.70;;;;;;;29.45;29.28;94047.75;5050133;28;20188;-64
2022/09/28 11:53:02;;;;;;;0.93;0.40;;;;;;;29.17;29.57;94047.91;5038655;28;20201;-64
2022/09/28 11:55:42;;;;;;;0.33;0.33;;;;;;;30.21;28.05;94053.00;5029484;28;20221;-63
2022/09/28 11:58:29;;;;;;;0.20;0.20;;;;;;;30.39;28.64;94046.31;5042250;28;20244;-61
2022/09/28 12:01:38;;;;;;;0.33;0.33;;;;;;;30.74;28.18;94040.53;5029776;28;20660;-62
2022/09/28 12:04:25;;;;;;;0.40;0.40;;;;;;;30.50;29.40;94035.38;5029395;28;20197;-65
2022/09/28 12:06:56;;;;;;;0.27;0.27;;;;;;;30.73;28.09;94028.19;5029207;28;20196;-61
2022/09/28 12:09:54;;;;;;;0.57;0.57;;;;;;;30.52;29.33;94025.72;5049005;28;20193;-64
2022/09/28 12:12:27;;;;;;;0.37;0.37;;;;;;;29.94;29.41;94025.84;5049070;28;20876;-62
2022/09/28 12:15:02;;;;;;;0.67;0.53;;;;;;;30.12;28.81;94026.47;5049281;28;20203;-61
2022/09/28 12:17:42;;;;;;;0.50;0.50;;;;;;;29.46;29.64;94017.66;5050350;28;20224;-60
2022/09/28 12:20:25;;;;;;;0.20;0.20;;;;;;;29.80;29.72;94025.94;5050571;28;20988;-61
2022/09/28 12:22:54;;;;;;;0.23;0.23;;;;;;;29.79;28.86;94029.81;5035660;28;20196;-64
2022/09/28 12:25:22;;;;;;;0.10;0.10;;;;;;;29.05;29.45;94024.03;5048651;28;20694;-62
2022/09/28 12:27:51;;;;;;;0.20;0.20;;;;;;;29.30;30.23;94035.50;5044986;28;20284;-63
2022/09/28 12:30:21;;;;;;;0.63;0.43;;;;;;;29.39;30.03;94019.63;5042108;28;20197;-61
2022/09/28 12:33:04;;;;;;;0.20;0.20;;;;;;;29.58;28.94;94038.03;5045927;28;20208;-63